Terminal Aerodrome Forecast
Issued by NWS Atlanta, GA

Home | Current Version | Previous Version | Text Only | Print | Product List | Glossary On
Versions: 1 2 3 4 5 6 7 8 9 10 11 12 13 14 15 16 17 18
000
FTUS42 KFFC 221213 AAA
TAFMCN
TAF AMD
KMCN 221213Z 2212/2312 VRB03KT 5SM BR BKN006
     FM221400 21003KT P6SM FEW008 SCT250
     FM221600 25005KT P6SM SCT040
     FM221800 22007KT P6SM VCSH SCT050
     FM230100 23004KT P6SM FEW060 SCT250=

USA.gov is the U.S. government's official web portal to all federal, state and local government web resources and services.